Time;durP1;ratioP1;P1;durP2;ratioP2;P2;SDS_P1;SDS_P2;PMS_P1;PMS_P2;Temp;Humidity;BMP_temperature;BMP_pressure;BME280_temperature;BME280_humidity;BME280_pressure;Samples;Min_cycle;Max_cycle;Signal;HPM_P1;HPM_P2
2023/05/27 00:01:23;;;;;;;6.10;4.20;;;7.80;99.90;;;;;;4976360;28;95423;-33
2023/05/27 00:03:49;;;;;;;14.68;4.95;;;7.80;99.90;;;;;;4976168;28;92891;-32
2023/05/27 00:06:14;;;;;;;9.85;4.15;;;7.70;99.90;;;;;;4976670;28;92710;-31
2023/05/27 00:08:40;;;;;;;10.95;4.18;;;7.70;99.90;;;;;;4976227;28;94916;-31
2023/05/27 00:11:05;;;;;;;6.63;4.35;;;7.70;99.90;;;;;;4975512;28;94690;-32
2023/05/27 00:13:31;;;;;;;6.18;4.75;;;7.70;99.90;;;;;;4976373;28;93565;-32
2023/05/27 00:15:57;;;;;;;10.50;3.88;;;7.70;99.90;;;;;;4975631;28;94295;-31
2023/05/27 00:18:22;;;;;;;9.63;5.65;;;7.70;99.90;;;;;;4976141;28;94990;-32
2023/05/27 00:20:48;;;;;;;27.92;5.00;;;7.60;99.90;;;;;;4975448;28;93608;-31
2023/05/27 00:23:14;;;;;;;8.30;4.70;;;7.50;99.90;;;;;;4976160;28;92210;-36
2023/05/27 00:25:40;;;;;;;9.07;4.35;;;7.50;99.90;;;;;;4978431;28;93396;-32
2023/05/27 00:28:06;;;;;;;29.60;4.43;;;7.50;99.90;;;;;;4979008;28;94674;-32
2023/05/27 00:30:31;;;;;;;7.38;4.53;;;7.40;99.90;;;;;;4962024;28;94600;-33
2023/05/27 00:32:57;;;;;;;9.82;4.97;;;7.40;99.90;;;;;;4961144;28;92553;-35
2023/05/27 00:35:23;;;;;;;13.88;5.45;;;7.40;99.90;;;;;;4979215;28;92236;-35
2023/05/27 00:37:49;;;;;;;12.88;5.25;;;7.40;99.90;;;;;;4978742;28;95584;-31
2023/05/27 00:40:16;;;;;;;11.25;4.60;;;7.40;99.90;;;;;;4978168;28;96215;-37
2023/05/27 00:42:41;;;;;;;12.20;6.65;;;7.30;99.90;;;;;;4980111;28;94955;-36
2023/05/27 00:45:08;;;;;;;12.18;4.13;;;7.30;99.90;;;;;;4977838;28;93481;-32
2023/05/27 00:47:34;;;;;;;14.65;4.15;;;7.40;99.90;;;;;;4978827;28;94854;-32
2023/05/27 00:50:00;;;;;;;8.73;4.40;;;7.30;99.90;;;;;;4979093;28;94572;-32
2023/05/27 00:52:27;;;;;;;11.88;4.57;;;7.30;99.90;;;;;;4978937;28;94223;-31
2023/05/27 00:54:53;;;;;;;13.50;5.68;;;7.30;99.90;;;;;;4979392;28;93061;-33
2023/05/27 00:57:19;;;;;;;8.63;4.50;;;7.40;99.90;;;;;;4978540;28;94683;-33
2023/05/27 00:59:46;;;;;;;12.35;4.65;;;7.40;99.90;;;;;;4978081;28;94438;-35
2023/05/27 01:02:11;;;;;;;6.50;4.13;;;7.40;99.90;;;;;;4978517;28;95290;-38
2023/05/27 01:04:37;;;;;;;14.05;5.68;;;7.30;99.90;;;;;;4978630;28;93420;-34
2023/05/27 01:07:16;;;;;;;10.55;4.90;;;7.10;99.90;;;;;;4978387;28;94328;-33
2023/05/27 01:09:47;;;;;;;;;;;7.10;99.90;;;;;;4978864;28;94012;-37
2023/05/27 01:12:46;;;;;;;6.75;4.18;;;7.10;99.90;;;;;;4979798;28;92306;-32
2023/05/27 01:15:12;;;;;;;8.60;4.60;;;7.10;99.90;;;;;;4978402;28;94565;-32
2023/05/27 01:17:42;;;;;;;8.35;4.70;;;7.10;99.90;;;;;;4978707;28;94819;-34
2023/05/27 01:20:14;;;;;;;10.60;5.32;;;7.10;99.90;;;;;;4978291;28;94341;-33
2023/05/27 01:22:42;;;;;;;14.50;5.55;;;7.10;99.90;;;;;;4978245;28;93017;-35
2023/05/27 01:25:09;;;;;;;12.60;5.50;;;7.00;99.90;;;;;;4977786;28;92250;-32
2023/05/27 01:27:35;;;;;;;13.05;6.93;;;7.00;99.90;;;;;;4978027;28;97254;-34
2023/05/27 01:30:02;;;;;;;7.22;4.18;;;7.00;99.90;;;;;;4978289;28;94657;-31
2023/05/27 01:32:40;;;;;;;13.13;5.25;;;7.00;99.90;;;;;;4959962;28;93426;-31
2023/05/27 01:35:18;;;;;;;10.30;5.00;;;7.00;99.90;;;;;;4977735;28;92916;-37
2023/05/27 01:37:45;;;;;;;19.58;7.88;;;7.00;99.90;;;;;;4977565;28;94449;-34
2023/05/27 01:40:13;;;;;;;15.02;5.88;;;7.00;99.90;;;;;;4977541;28;94564;-36
2023/05/27 01:42:40;;;;;;;12.13;5.05;;;7.00;99.90;;;;;;4978619;28;94231;-34
2023/05/27 01:45:08;;;;;;;12.90;4.50;;;7.10;99.90;;;;;;4977964;28;93853;-31
2023/05/27 01:47:34;;;;;;;9.63;4.30;;;7.00;99.90;;;;;;4960558;28;94992;-33
2023/05/27 01:50:00;;;;;;;16.50;5.95;;;7.00;99.90;;;;;;4978503;28;94386;-32
2023/05/27 01:52:26;;;;;;;10.57;4.07;;;7.10;99.90;;;;;;4977134;28;93844;-35
2023/05/27 01:54:52;;;;;;;8.80;4.10;;;7.10;99.90;;;;;;4978635;28;94043;-33
2023/05/27 01:57:18;;;;;;;10.15;5.30;;;7.10;99.90;;;;;;4977266;28;94183;-32
2023/05/27 01:59:44;;;;;;;13.98;5.45;;;7.10;99.90;;;;;;4959088;28;93901;-33
2023/05/27 02:02:10;;;;;;;23.33;7.07;;;7.00;99.90;;;;;;4978218;28;92284;-32
2023/05/27 02:04:36;;;;;;;8.52;4.88;;;7.00;99.90;;;;;;4977180;28;94350;-33
2023/05/27 02:07:03;;;;;;;13.82;4.53;;;6.90;99.90;;;;;;4977728;28;94636;-36
2023/05/27 02:09:28;;;;;;;7.97;4.78;;;6.90;99.90;;;;;;4977969;28;94570;-31
2023/05/27 02:11:54;;;;;;;5.07;3.85;;;6.90;99.90;;;;;;4977799;28;94624;-32
2023/05/27 02:14:20;;;;;;;11.77;5.00;;;6.90;99.90;;;;;;4977245;28;92635;-35
2023/05/27 02:16:45;;;;;;;10.10;5.35;;;6.90;99.90;;;;;;4977136;28;95749;-33
2023/05/27 02:19:11;;;;;;;36.55;6.47;;;6.90;99.90;;;;;;4976716;28;95351;-33
2023/05/27 02:21:37;;;;;;;15.95;5.97;;;7.00;99.90;;;;;;4977934;28;94388;-32
2023/05/27 02:24:03;;;;;;;12.25;4.93;;;7.00;99.90;;;;;;4976760;28;93131;-35
2023/05/27 02:26:28;;;;;;;14.07;4.38;;;7.00;99.90;;;;;;4959816;28;94760;-31
2023/05/27 02:28:54;;;;;;;10.30;6.15;;;7.00;99.90;;;;;;4959428;28;94539;-32
2023/05/27 02:31:22;;;;;;;12.10;4.38;;;7.00;99.90;;;;;;4977877;28;92204;-37
2023/05/27 02:33:47;;;;;;;23.30;6.67;;;7.10;99.90;;;;;;4978157;28;92022;-36
2023/05/27 02:36:13;;;;;;;14.40;5.57;;;7.10;99.90;;;;;;4976271;28;94387;-35
2023/05/27 02:38:39;;;;;;;14.32;6.72;;;7.00;99.90;;;;;;4977080;28;94265;-32
2023/05/27 02:41:04;;;;;;;14.82;4.80;;;6.90;99.90;;;;;;4977102;28;94093;-32
2023/05/27 02:43:30;;;;;;;10.73;4.57;;;6.90;99.90;;;;;;4977077;28;94322;-33
2023/05/27 02:45:55;;;;;;;8.50;5.63;;;6.90;99.90;;;;;;4977417;28;94851;-32
2023/05/27 02:48:21;;;;;;;8.73;4.15;;;6.90;99.90;;;;;;4976497;28;94341;-33
2023/05/27 02:50:47;;;;;;;12.32;5.93;;;6.90;99.90;;;;;;4977357;28;92546;-35
2023/05/27 02:53:12;;;;;;;10.90;5.03;;;6.90;99.90;;;;;;4976617;28;92543;-33
2023/05/27 02:55:38;;;;;;;8.98;4.40;;;6.80;99.90;;;;;;4959898;28;95718;-35
2023/05/27 02:58:04;;;;;;;9.85;4.03;;;6.80;99.90;;;;;;4977265;28;94634;-31
2023/05/27 03:00:31;;;;;;;9.93;4.40;;;6.80;99.90;;;;;;4957918;28;93224;-34
2023/05/27 03:02:56;;;;;;;3.78;2.95;;;6.80;99.90;;;;;;4977338;28;94952;-32
2023/05/27 03:05:22;;;;;;;7.38;4.47;;;6.70;99.90;;;;;;4976162;28;95353;-34
2023/05/27 03:07:48;;;;;;;4.60;3.40;;;6.60;99.90;;;;;;4976991;28;94024;-37
2023/05/27 03:10:13;;;;;;;9.40;5.53;;;6.60;99.90;;;;;;4976719;28;93816;-34
2023/05/27 03:12:40;;;;;;;10.77;5.85;;;6.60;99.90;;;;;;4976484;28;94114;-37
2023/05/27 03:15:06;;;;;;;7.88;5.32;;;6.60;99.90;;;;;;4976160;28;95838;-37
2023/05/27 03:17:37;;;;;;;15.38;5.38;;;6.60;99.90;;;;;;4976444;28;94541;-35
2023/05/27 03:20:03;;;;;;;14.55;5.00;;;6.70;99.90;;;;;;4976464;28;94444;-35
2023/05/27 03:22:29;;;;;;;15.60;5.65;;;6.70;99.90;;;;;;4976683;28;92340;-33
2023/05/27 03:24:54;;;;;;;12.57;4.93;;;6.80;99.90;;;;;;4976357;28;94826;-34
2023/05/27 03:27:20;;;;;;;17.05;6.40;;;7.00;99.90;;;;;;4975938;28;94457;-33
2023/05/27 03:29:46;;;;;;;21.77;5.63;;;7.00;99.90;;;;;;4976560;28;93676;-32
2023/05/27 03:32:12;;;;;;;14.38;5.80;;;7.00;99.90;;;;;;4976759;28;94455;-31
2023/05/27 03:34:38;;;;;;;10.02;5.38;;;7.10;99.90;;;;;;4975905;28;94883;-35
2023/05/27 03:37:03;;;;;;;14.38;4.43;;;7.10;99.90;;;;;;4976483;28;94303;-36
2023/05/27 03:39:29;;;;;;;11.60;5.18;;;7.10;99.90;;;;;;4976251;28;93309;-37
2023/05/27 03:41:55;;;;;;;14.05;4.22;;;7.10;99.90;;;;;;4977108;28;92514;-35
2023/05/27 03:44:21;;;;;;;12.52;4.93;;;7.20;99.90;;;;;;4976244;28;94263;-32
2023/05/27 03:46:46;;;;;;;14.23;6.30;;;7.20;99.90;;;;;;4976401;28;94605;-33
2023/05/27 03:49:12;;;;;;;15.35;4.18;;;7.30;99.90;;;;;;4976599;28;93908;-32
2023/05/27 03:51:38;;;;;;;17.95;6.65;;;7.30;99.90;;;;;;4975980;28;94742;-32
2023/05/27 03:54:03;;;;;;;11.25;5.72;;;7.30;99.90;;;;;;4976407;28;96432;-33
2023/05/27 03:56:29;;;;;;;16.35;5.78;;;7.30;99.90;;;;;;4976377;28;95704;-33
2023/05/27 03:58:56;;;;;;;14.90;5.13;;;7.40;99.90;;;;;;4976429;28;94419;-38
2023/05/27 04:01:21;;;;;;;21.42;4.80;;;7.50;99.90;;;;;;4961739;28;94106;-31
2023/05/27 04:03:48;;;;;;;19.67;5.85;;;7.60;99.90;;;;;;4979574;28;94581;-35
2023/05/27 04:06:13;;;;;;;11.20;5.63;;;7.50;99.90;;;;;;4979765;28;94368;-33
2023/05/27 04:08:40;;;;;;;8.65;5.05;;;7.50;99.90;;;;;;4979580;28;93325;-34
2023/05/27 04:11:09;;;;;;;14.18;6.40;;;7.50;99.90;;;;;;4979772;28;92494;-36
2023/05/27 04:13:35;;;;;;;10.77;6.93;;;7.50;99.90;;;;;;4978762;28;94503;-37
2023/05/27 04:16:01;;;;;;;12.18;6.15;;;7.50;99.90;;;;;;4979820;28;93653;-31
2023/05/27 04:18:26;;;;;;;7.57;4.82;;;7.50;99.90;;;;;;4960582;28;94535;-31
2023/05/27 04:20:52;;;;;;;18.45;4.80;;;7.50;99.90;;;;;;5012190;22;93462;-35
2023/05/27 04:23:18;;;;;;;12.80;5.03;;;7.50;99.90;;;;;;4979340;28;94791;-35
2023/05/27 04:25:43;;;;;;;8.20;4.15;;;7.50;99.90;;;;;;4978763;28;95505;-33
2023/05/27 04:28:09;;;;;;;12.93;5.13;;;7.60;99.90;;;;;;4979658;28;94786;-32
2023/05/27 04:30:35;;;;;;;9.23;4.50;;;7.70;99.90;;;;;;4979230;28;93338;-34
2023/05/27 04:33:02;;;;;;;8.52;4.43;;;7.80;99.90;;;;;;4979719;28;94716;-33
2023/05/27 04:35:30;;;;;;;8.23;5.07;;;7.90;99.90;;;;;;4978735;28;95049;-34
2023/05/27 04:37:58;;;;;;;8.98;4.70;;;8.00;99.90;;;;;;4979434;28;93166;-32
2023/05/27 04:40:24;;;;;;;9.80;4.47;;;8.20;99.90;;;;;;4978561;28;93177;-33
2023/05/27 04:42:50;;;;;;;15.27;4.55;;;8.30;99.90;;;;;;4979359;28;96020;-33
2023/05/27 04:45:16;;;;;;;12.32;6.60;;;8.50;99.90;;;;;;4978542;28;95250;-31
2023/05/27 04:47:42;;;;;;;7.85;4.15;;;8.60;99.90;;;;;;4979372;28;93071;-35
2023/05/27 04:50:08;;;;;;;8.60;4.03;;;8.70;99.90;;;;;;4978346;28;92994;-34
2023/05/27 04:52:38;;;;;;;8.60;4.88;;;8.80;99.90;;;;;;4978693;28;93532;-30
2023/05/27 04:55:05;;;;;;;13.10;5.40;;;8.90;99.90;;;;;;4978327;28;95076;-33
2023/05/27 04:57:30;;;;;;;9.88;6.53;;;9.00;99.90;;;;;;4978866;28;93040;-31
2023/05/27 05:00:17;;;;;;;13.73;6.15;;;9.00;99.90;;;;;;4979350;28;93067;-31
2023/05/27 05:02:47;;;;;;;11.48;5.75;;;9.20;99.90;;;;;;4978818;28;94730;-34
2023/05/27 05:05:13;;;;;;;8.52;5.15;;;9.20;99.90;;;;;;4978245;28;94480;-32
2023/05/27 05:07:41;;;;;;;17.23;5.10;;;9.40;99.90;;;;;;4978583;28;94463;-36
2023/05/27 05:10:10;;;;;;;15.03;6.40;;;9.50;99.90;;;;;;4978796;28;92140;-35
2023/05/27 05:12:37;;;;;;;18.98;5.65;;;9.50;99.90;;;;;;4977907;28;94885;-33
2023/05/27 05:15:03;;;;;;;7.53;4.97;;;9.60;99.90;;;;;;4978318;28;95937;-32
2023/05/27 05:17:29;;;;;;;12.50;5.10;;;9.70;99.90;;;;;;4978687;28;93636;-35
2023/05/27 05:19:55;;;;;;;9.40;6.07;;;9.90;99.90;;;;;;4960332;28;94100;-30
2023/05/27 05:22:22;;;;;;;15.77;5.28;;;9.90;99.90;;;;;;4977690;28;94377;-33
2023/05/27 05:24:49;;;;;;;10.80;4.73;;;10.10;99.90;;;;;;4978631;28;94448;-36
2023/05/27 05:27:15;;;;;;;14.70;4.88;;;10.20;99.90;;;;;;4978654;28;93363;-32
2023/05/27 05:29:41;;;;;;;16.55;5.80;;;10.40;99.90;;;;;;4978195;28;94179;-33
2023/05/27 05:32:08;;;;;;;10.68;4.70;;;10.50;99.90;;;;;;4976533;28;95486;-35
2023/05/27 05:34:34;;;;;;;9.65;4.10;;;10.70;99.90;;;;;;4960122;28;96693;-32
2023/05/27 05:37:00;;;;;;;15.30;5.55;;;10.70;99.90;;;;;;4960084;28;92699;-35
2023/05/27 05:39:25;;;;;;;12.68;4.40;;;10.90;99.90;;;;;;4978807;28;94568;-32
2023/05/27 05:41:51;;;;;;;6.13;4.38;;;10.90;99.90;;;;;;4986250;28;94935;-34
2023/05/27 05:44:17;;;;;;;14.50;5.18;;;10.90;99.90;;;;;;4976890;28;93808;-36
2023/05/27 05:46:43;;;;;;;12.45;5.30;;;10.80;99.90;;;;;;4977932;28;94670;-34
2023/05/27 05:49:08;;;;;;;12.32;5.53;;;10.90;99.90;;;;;;4977586;28;92266;-31
2023/05/27 05:51:35;;;;;;;18.42;5.80;;;11.00;99.90;;;;;;4978139;28;94570;-34
2023/05/27 05:54:01;;;;;;;21.63;5.25;;;11.10;99.90;;;;;;4977659;28;92836;-31
2023/05/27 05:56:27;;;;;;;11.63;4.47;;;11.20;99.90;;;;;;4976659;28;93818;-32
2023/05/27 05:58:53;;;;;;;15.38;5.22;;;11.20;99.90;;;;;;4960577;28;94472;-32
2023/05/27 06:01:19;;;;;;;13.00;6.22;;;11.40;99.90;;;;;;4977015;28;94493;-33
2023/05/27 06:03:45;;;;;;;8.77;5.13;;;11.30;99.90;;;;;;4977536;28;94413;-37
2023/05/27 06:06:11;;;;;;;25.67;6.93;;;11.30;99.90;;;;;;4977772;28;93619;-33
2023/05/27 06:08:36;;;;;;;17.92;6.18;;;11.20;99.90;;;;;;4977851;28;93708;-31
2023/05/27 06:11:02;;;;;;;18.55;5.18;;;11.20;99.90;;;;;;4959475;28;93440;-35
2023/05/27 06:13:28;;;;;;;11.90;5.68;;;11.00;99.90;;;;;;4977148;28;93678;-33
2023/05/27 06:15:55;;;;;;;22.20;5.97;;;11.00;99.90;;;;;;4977532;28;93102;-32
2023/05/27 06:18:21;;;;;;;26.40;7.13;;;11.10;99.90;;;;;;4977712;28;93990;-31
2023/05/27 06:20:47;;;;;;;10.85;5.53;;;11.00;99.90;;;;;;4975594;28;95769;-31
2023/05/27 06:23:12;;;;;;;13.77;6.00;;;11.00;99.90;;;;;;4976297;28;95750;-33
2023/05/27 06:25:38;;;;;;;7.53;4.15;;;11.10;99.90;;;;;;4976373;28;93394;-33
2023/05/27 06:28:04;;;;;;;12.38;6.25;;;11.30;99.90;;;;;;4959530;28;93278;-34
2023/05/27 06:30:31;;;;;;;14.05;5.50;;;11.70;99.90;;;;;;4977229;28;94843;-30
2023/05/27 06:32:57;;;;;;;15.05;5.05;;;11.80;99.90;;;;;;4977053;28;94374;-33
2023/05/27 06:35:22;;;;;;;6.40;4.15;;;12.10;99.90;;;;;;4976519;28;94002;-36
2023/05/27 06:37:48;;;;;;;12.32;5.32;;;12.20;99.90;;;;;;4977148;28;92712;-33
2023/05/27 06:40:14;;;;;;;11.00;4.68;;;12.30;99.90;;;;;;4976261;28;94426;-37
2023/05/27 06:42:40;;;;;;;10.02;3.63;;;12.50;99.90;;;;;;4977354;28;94426;-34
2023/05/27 06:45:06;;;;;;;11.68;6.20;;;12.70;99.90;;;;;;4976619;28;95016;-30
2023/05/27 06:47:31;;;;;;;26.60;5.85;;;12.90;99.90;;;;;;4976975;28;94720;-33
2023/05/27 06:49:57;;;;;;;12.80;4.57;;;13.00;99.90;;;;;;4976771;28;95017;-32
2023/05/27 06:52:23;;;;;;;12.02;4.57;;;13.00;99.90;;;;;;4975798;28;94888;-31
2023/05/27 06:54:48;;;;;;;13.27;4.68;;;13.10;99.90;;;;;;4981248;28;92102;-33
2023/05/27 06:57:14;;;;;;;15.02;5.85;;;13.10;99.90;;;;;;4995323;28;94284;-32
2023/05/27 06:59:40;;;;;;;11.23;4.93;;;13.10;99.90;;;;;;4987726;28;93837;-33
2023/05/27 07:02:06;;;;;;;15.40;4.35;;;13.40;99.90;;;;;;4975931;28;94364;-32
2023/05/27 07:04:32;;;;;;;7.07;4.80;;;13.80;99.90;;;;;;4976176;28;93688;-33
2023/05/27 07:06:58;;;;;;;9.60;4.72;;;13.90;99.90;;;;;;4977138;28;93500;-31
2023/05/27 07:09:24;;;;;;;11.90;5.20;;;13.90;99.90;;;;;;4971869;28;94318;-34
2023/05/27 07:11:49;;;;;;;13.88;6.40;;;13.70;99.90;;;;;;4974167;28;95461;-36
2023/05/27 07:14:15;;;;;;;11.77;5.70;;;14.00;99.90;;;;;;4973192;28;93548;-35
2023/05/27 07:16:41;;;;;;;18.88;4.78;;;14.30;99.90;;;;;;4973684;28;94138;-34
2023/05/27 07:19:06;;;;;;;9.82;6.18;;;14.00;99.90;;;;;;4955602;28;96705;-34
2023/05/27 07:21:32;;;;;;;11.27;5.05;;;14.50;99.90;;;;;;4955413;28;94177;-34
2023/05/27 07:24:03;;;;;;;10.18;5.95;;;14.70;99.90;;;;;;4956369;28;92979;-33
2023/05/27 07:26:30;;;;;;;10.40;4.82;;;15.10;99.90;;;;;;4977883;28;92751;-34
2023/05/27 07:28:58;;;;;;;16.05;6.03;;;14.90;99.90;;;;;;4993290;28;94789;-35
2023/05/27 07:31:24;;;;;;;8.65;5.07;;;14.80;99.90;;;;;;4992871;28;94359;-33
2023/05/27 07:33:50;;;;;;;8.18;4.75;;;14.80;99.90;;;;;;4992534;28;94219;-33
2023/05/27 07:36:15;;;;;;;23.08;6.18;;;14.80;99.90;;;;;;4992864;28;94167;-33
2023/05/27 07:38:41;;;;;;;13.45;5.53;;;15.00;99.90;;;;;;4993681;28;93782;-31
2023/05/27 07:41:07;;;;;;;12.20;5.53;;;14.70;99.90;;;;;;4994053;28;93259;-32
2023/05/27 07:43:32;;;;;;;12.60;5.82;;;14.90;99.90;;;;;;4993653;28;92193;-32
2023/05/27 07:45:58;;;;;;;13.20;4.65;;;15.00;99.90;;;;;;4993309;28;95159;-33
2023/05/27 07:48:23;;;;;;;11.57;3.80;;;15.10;99.90;;;;;;4993265;28;94607;-33
2023/05/27 07:50:49;;;;;;;11.93;4.63;;;15.40;99.90;;;;;;4991068;28;94630;-34
2023/05/27 07:53:14;;;;;;;9.55;4.32;;;15.50;99.90;;;;;;4973588;28;92271;-31
2023/05/27 07:55:40;;;;;;;14.63;5.53;;;15.50;99.90;;;;;;4972607;28;92171;-33
2023/05/27 07:58:06;;;;;;;19.13;5.60;;;15.50;99.90;;;;;;4972871;28;95331;-32
2023/05/27 08:00:32;;;;;;;13.07;6.47;;;15.80;99.90;;;;;;4972325;28;93518;-36
2023/05/27 08:02:57;;;;;;;9.15;6.38;;;15.60;99.90;;;;;;4974511;28;94619;-36
2023/05/27 08:05:23;;;;;;;12.30;5.55;;;16.20;99.90;;;;;;4972964;28;94109;-33
2023/05/27 08:07:49;;;;;;;13.80;5.65;;;16.50;99.90;;;;;;4973105;28;94619;-34
2023/05/27 08:10:15;;;;;;;12.38;5.18;;;16.50;99.90;;;;;;4973533;28;94454;-34
2023/05/27 08:12:41;;;;;;;14.82;5.55;;;16.20;99.90;;;;;;4973271;28;93410;-32
2023/05/27 08:15:07;;;;;;;13.93;6.60;;;16.50;99.90;;;;;;4973754;28;94188;-36
2023/05/27 08:17:32;;;;;;;10.25;5.32;;;17.10;99.90;;;;;;4973594;28;94327;-33
2023/05/27 08:19:58;;;;;;;13.77;5.55;;;17.20;99.90;;;;;;4976004;28;94882;-35
2023/05/27 08:22:24;;;;;;;13.38;5.10;;;16.60;99.90;;;;;;4993320;28;95638;-32
2023/05/27 08:24:49;;;;;;;12.10;5.18;;;16.90;99.90;;;;;;4992653;28;93650;-32
2023/05/27 08:27:16;;;;;;;7.30;5.50;;;17.00;99.90;;;;;;4992349;28;94657;-35
2023/05/27 08:29:42;;;;;;;13.95;5.10;;;16.70;99.90;;;;;;4988414;28;93472;-33
2023/05/27 08:32:08;;;;;;;9.73;6.43;;;17.10;99.90;;;;;;4972110;28;94565;-36
2023/05/27 08:34:33;;;;;;;16.60;5.32;;;17.30;99.90;;;;;;4972609;28;93822;-35
2023/05/27 08:37:00;;;;;;;15.15;5.07;;;17.20;99.90;;;;;;4972145;28;96071;-35
2023/05/27 08:39:26;;;;;;;13.27;6.25;;;17.30;99.90;;;;;;4972351;28;94635;-35
2023/05/27 08:41:53;;;;;;;13.80;5.28;;;17.00;99.90;;;;;;4972651;28;93476;-33
2023/05/27 08:44:21;;;;;;;23.98;6.13;;;16.90;99.90;;;;;;4954052;28;92308;-32
2023/05/27 08:46:50;;;;;;;;;;;17.30;99.90;;;;;;4974394;28;95385;-34
2023/05/27 08:49:19;;;;;;;15.23;5.82;;;17.80;99.90;;;;;;4974239;28;95171;-36
2023/05/27 08:51:46;;;;;;;18.50;5.85;;;17.80;99.90;;;;;;4976846;28;93578;-32
2023/05/27 08:54:11;;;;;;;10.98;5.28;;;17.70;95.60;;;;;;4976616;28;93851;-34
2023/05/27 08:56:39;;;;;;;14.18;6.43;;;18.10;99.90;;;;;;4976307;28;94675;-33
2023/05/27 08:59:06;;;;;;;18.13;8.00;;;17.50;90.60;;;;;;4975630;28;93344;-35
2023/05/27 09:01:32;;;;;;;11.25;6.20;;;17.50;96.50;;;;;;4976334;28;93251;-35
2023/05/27 09:03:58;;;;;;;22.45;6.70;;;17.60;99.90;;;;;;4975844;28;92985;-35
2023/05/27 09:06:24;;;;;;;14.32;6.65;;;17.70;99.90;;;;;;4975051;28;94895;-33
2023/05/27 09:08:50;;;;;;;12.73;5.53;;;17.70;92.60;;;;;;4975575;28;94265;-32
2023/05/27 09:11:27;;;;;;;14.25;6.25;;;18.00;91.20;;;;;;4974697;28;94078;-35
2023/05/27 09:13:55;;;;;;;11.98;6.10;;;18.30;92.10;;;;;;4973809;28;94490;-36
2023/05/27 09:16:21;;;;;;;17.27;6.60;;;18.20;88.10;;;;;;4974063;28;95154;-34
2023/05/27 09:18:48;;;;;;;15.70;6.35;;;18.50;95.80;;;;;;4975526;28;94555;-33
2023/05/27 09:21:14;;;;;;;11.15;5.35;;;18.70;95.70;;;;;;4975023;28;93135;-33
2023/05/27 09:23:41;;;;;;;13.32;6.63;;;18.60;86.20;;;;;;4975924;28;94359;-31
2023/05/27 09:26:11;;;;;;;11.52;5.57;;;18.60;88.10;;;;;;4973505;28;94369;-36
2023/05/27 09:28:38;;;;;;;9.32;6.72;;;18.70;91.80;;;;;;4975067;28;94115;-34
2023/05/27 09:31:05;;;;;;;15.50;6.25;;;18.40;87.40;;;;;;4975159;28;92957;-36
2023/05/27 09:33:33;;;;;;;13.10;6.27;;;18.20;91.30;;;;;;4975509;28;92455;-33
2023/05/27 09:36:03;;;;;;;20.80;7.07;;;18.20;99.90;;;;;;4974923;28;95521;-33
2023/05/27 09:38:33;;;;;;;10.82;5.75;;;18.20;95.50;;;;;;4975006;28;95539;-31
2023/05/27 09:40:59;;;;;;;13.32;6.47;;;18.40;99.90;;;;;;4957762;28;93582;-34
2023/05/27 09:43:26;;;;;;;14.60;6.95;;;18.40;95.20;;;;;;4974929;28;92713;-35
2023/05/27 09:45:58;;;;;;;14.85;6.00;;;18.60;93.70;;;;;;4974715;28;94739;-36
2023/05/27 09:48:26;;;;;;;11.60;5.82;;;18.60;95.00;;;;;;4974938;28;94838;-32
2023/05/27 09:50:54;;;;;;;18.45;7.25;;;18.60;88.00;;;;;;4975431;28;94518;-33
2023/05/27 09:53:23;;;;;;;11.67;6.83;;;18.60;93.20;;;;;;4974915;28;91903;-34
2023/05/27 09:55:49;;;;;;;14.57;7.63;;;18.50;84.70;;;;;;4974615;28;94938;-32
2023/05/27 09:58:15;;;;;;;11.15;6.72;;;18.60;93.20;;;;;;4956582;28;94489;-34
2023/05/27 10:00:44;;;;;;;19.00;7.70;;;18.50;89.70;;;;;;4974203;28;94240;-35
2023/05/27 10:03:10;;;;;;;16.67;6.63;;;18.70;91.60;;;;;;4974444;28;93379;-34
2023/05/27 10:05:37;;;;;;;15.18;7.22;;;18.30;92.00;;;;;;4975409;28;95472;-35
2023/05/27 10:08:03;;;;;;;15.73;7.97;;;18.30;89.60;;;;;;4974564;28;96360;-33
2023/05/27 10:10:29;;;;;;;13.02;6.40;;;18.40;92.70;;;;;;4975342;28;94749;-31
2023/05/27 10:12:57;;;;;;;14.73;6.95;;;18.40;89.80;;;;;;4974869;28;93788;-34
2023/05/27 10:15:32;;;;;;;12.80;6.13;;;18.50;84.90;;;;;;4974266;28;94706;-32
2023/05/27 10:18:02;;;;;;;15.50;6.70;;;18.50;86.80;;;;;;4974921;28;94441;-36
2023/05/27 10:20:32;;;;;;;13.15;6.53;;;18.30;99.10;;;;;;4973272;28;92872;-35
2023/05/27 10:23:21;;;;;;;18.00;7.55;;;18.50;92.30;;;;;;4973727;28;94304;-32
2023/05/27 10:25:49;;;;;;;17.65;7.75;;;18.30;84.10;;;;;;4972450;28;97370;-34
2023/05/27 10:28:25;;;;;;;11.63;5.40;;;18.50;89.50;;;;;;4972566;28;96219;-32
2023/05/27 10:30:51;;;;;;;11.38;6.35;;;18.50;90.80;;;;;;4974044;28;92132;-33
2023/05/27 10:33:29;;;;;;;19.17;6.57;;;18.60;89.00;;;;;;4973407;28;93379;-32
2023/05/27 10:35:54;;;;;;;13.03;6.73;;;18.80;90.10;;;;;;4972454;28;94873;-32
2023/05/27 10:38:20;;;;;;;15.50;5.60;;;19.00;87.30;;;;;;4972785;28;95102;-33
2023/05/27 10:40:49;;;;;;;13.52;6.35;;;19.00;93.10;;;;;;4973285;28;94303;-33
2023/05/27 10:43:19;;;;;;;10.52;5.45;;;19.00;81.20;;;;;;4973474;28;92926;-34
2023/05/27 10:45:45;;;;;;;14.77;7.38;;;19.10;81.90;;;;;;4954327;28;94561;-33
2023/05/27 10:48:28;;;;;;;15.82;5.60;;;18.90;78.90;;;;;;4971583;28;94396;-34
2023/05/27 10:50:56;;;;;;;13.05;6.15;;;19.00;84.40;;;;;;4973151;28;95167;-33
2023/05/27 10:53:22;;;;;;;17.48;6.85;;;18.90;77.60;;;;;;4972473;28;92622;-32
2023/05/27 10:55:50;;;;;;;13.23;6.30;;;18.60;82.90;;;;;;4972321;28;94913;-35
2023/05/27 10:58:16;;;;;;;12.35;5.97;;;18.90;87.40;;;;;;4972446;28;95324;-35
2023/05/27 11:00:43;;;;;;;20.20;7.30;;;18.90;78.40;;;;;;4972854;28;92534;-33
2023/05/27 11:03:27;;;;;;;17.03;7.70;;;18.90;79.40;;;;;;4972342;28;94156;-32
2023/05/27 11:06:06;;;;;;;13.52;7.18;;;18.90;82.50;;;;;;4972641;28;94228;-33
2023/05/27 11:08:33;;;;;;;11.13;6.60;;;19.00;83.00;;;;;;4973005;28;95225;-32
2023/05/27 11:11:05;;;;;;;11.50;6.47;;;19.10;86.70;;;;;;4973502;28;93610;-33
2023/05/27 11:13:44;;;;;;;13.68;6.63;;;19.10;85.80;;;;;;4972383;28;93228;-32
2023/05/27 11:16:12;;;;;;;9.80;6.43;;;19.00;78.30;;;;;;4953785;28;95832;-37
2023/05/27 11:18:40;;;;;;;11.27;5.63;;;19.10;80.00;;;;;;4972198;28;95318;-31
2023/05/27 11:21:07;;;;;;;10.93;5.50;;;18.90;79.80;;;;;;4934395;28;1125311;-32
2023/05/27 11:23:37;;;;;;;12.65;5.68;;;19.00;81.70;;;;;;4956249;28;94150;-31
2023/05/27 11:26:03;;;;;;;14.25;7.57;;;19.00;82.00;;;;;;4972665;28;94723;-35
2023/05/27 11:28:29;;;;;;;13.25;6.97;;;18.90;79.00;;;;;;4973887;28;94404;-34
2023/05/27 11:31:02;;;;;;;16.52;7.03;;;18.80;77.90;;;;;;4973746;28;93856;-32
2023/05/27 11:33:33;;;;;;;17.95;7.40;;;19.00;78.20;;;;;;4973387;28;93377;-33
2023/05/27 11:36:11;;;;;;;23.90;7.55;;;19.20;84.60;;;;;;4973827;28;93390;-35
2023/05/27 11:38:47;;;;;;;15.27;6.68;;;19.10;75.60;;;;;;4956310;28;94802;-33
2023/05/27 11:41:12;;;;;;;14.93;6.63;;;19.10;76.40;;;;;;4972714;28;93442;-36
2023/05/27 11:43:47;;;;;;;21.88;7.75;;;19.00;78.50;;;;;;4973429;28;93108;-33
2023/05/27 11:46:13;;;;;;;14.35;7.00;;;19.10;82.30;;;;;;4973539;28;96143;-32
2023/05/27 11:48:39;;;;;;;11.30;6.75;;;18.90;76.60;;;;;;4973518;28;94598;-33
2023/05/27 11:51:04;;;;;;;14.07;6.57;;;18.70;82.90;;;;;;4956927;28;92162;-34
2023/05/27 11:53:30;;;;;;;16.48;7.53;;;19.00;86.30;;;;;;4977095;28;93106;-35
2023/05/27 11:55:56;;;;;;;16.77;6.70;;;19.20;80.00;;;;;;4994195;28;94776;-31
2023/05/27 11:58:21;;;;;;;15.82;8.65;;;19.30;85.80;;;;;;4992973;28;95204;-32
2023/05/27 12:00:47;;;;;;;13.85;6.80;;;19.30;76.50;;;;;;4993400;28;93130;-35
2023/05/27 12:03:13;;;;;;;17.95;7.35;;;19.40;76.20;;;;;;4993654;28;94612;-33
2023/05/27 12:05:38;;;;;;;16.15;6.63;;;19.20;76.50;;;;;;4974211;28;95398;-34
2023/05/27 12:08:05;;;;;;;13.77;7.25;;;19.20;75.20;;;;;;4993118;28;95433;-35
2023/05/27 12:10:30;;;;;;;17.15;6.57;;;19.20;76.60;;;;;;4993443;28;94267;-33
2023/05/27 12:13:06;;;;;;;14.75;6.47;;;19.10;76.40;;;;;;4975670;28;93234;-35
2023/05/27 12:15:32;;;;;;;12.25;6.43;;;19.30;76.30;;;;;;4992689;28;94422;-34
2023/05/27 12:17:58;;;;;;;15.65;6.35;;;19.30;75.90;;;;;;4993006;28;94454;-33
2023/05/27 12:20:27;;;;;;;14.25;7.43;;;19.40;77.30;;;;;;4994052;28;94074;-36
2023/05/27 12:22:55;;;;;;;12.02;5.72;;;19.50;75.50;;;;;;4997638;28;92253;-33
2023/05/27 12:25:21;;;;;;;13.47;7.10;;;19.50;74.20;;;;;;4996904;28;94851;-34
2023/05/27 12:27:46;;;;;;;18.08;7.90;;;19.30;72.90;;;;;;4996221;28;94464;-33
2023/05/27 12:30:13;;;;;;;14.65;6.78;;;19.40;74.00;;;;;;4996114;28;95675;-32
2023/05/27 12:32:39;;;;;;;13.68;6.55;;;19.40;74.10;;;;;;4996990;28;93273;-34
2023/05/27 12:35:05;;;;;;;13.48;8.10;;;19.50;75.90;;;;;;4995856;28;93408;-37
2023/05/27 12:37:31;;;;;;;10.98;5.90;;;19.50;75.30;;;;;;4996862;28;94536;-34
2023/05/27 12:39:57;;;;;;;20.98;7.80;;;19.50;77.00;;;;;;4996469;28;94699;-33
2023/05/27 12:42:23;;;;;;;12.07;5.97;;;19.60;74.50;;;;;;4996367;28;94319;-37